Time;durP1;ratioP1;P1;durP2;ratioP2;P2;SDS_P1;SDS_P2;PMS_P1;PMS_P2;Temp;Humidity;BMP_temperature;BMP_pressure;BME280_temperature;BME280_humidity;BME280_pressure;Samples;Min_cycle;Max_cycle;Signal;HPM_P1;HPM_P2
2021/06/23 00:02:20;;;;;;;7.55;2.72;;;25.00;96.70;;;;;;5044659;28;20041;-70
2021/06/23 00:04:51;;;;;;;5.45;2.50;;;25.00;96.70;;;;;;5041168;28;20422;-70
2021/06/23 00:07:20;;;;;;;10.13;3.08;;;25.00;96.70;;;;;;5047868;28;20048;-70
2021/06/23 00:09:49;;;;;;;9.70;3.42;;;25.00;96.70;;;;;;5040510;28;20045;-70
2021/06/23 00:12:17;;;;;;;8.50;3.15;;;24.90;96.70;;;;;;5044879;28;20078;-70
2021/06/23 00:14:46;;;;;;;7.35;2.75;;;24.90;96.70;;;;;;5042739;28;20526;-70
2021/06/23 00:17:16;;;;;;;8.82;3.25;;;24.80;96.70;;;;;;5037184;28;20037;-70
2021/06/23 00:19:45;;;;;;;9.52;3.38;;;24.90;96.70;;;;;;5038763;28;20052;-70
2021/06/23 00:22:44;;;;;;;11.48;3.83;;;24.90;96.70;;;;;;5049422;28;20491;-70
2021/06/23 00:25:13;;;;;;;8.68;3.15;;;24.80;96.70;;;;;;5042085;28;20513;-70
2021/06/23 00:27:42;;;;;;;8.65;3.65;;;24.60;96.70;;;;;;5030112;28;20095;-70
2021/06/23 00:30:14;;;;;;;9.20;3.20;;;24.50;96.70;;;;;;5050986;28;20605;-70
2021/06/23 00:32:46;;;;;;;8.25;3.10;;;24.50;96.70;;;;;;5042659;28;20048;-70
2021/06/23 00:35:16;;;;;;;8.70;2.78;;;24.50;96.70;;;;;;5042294;28;20054;-70
2021/06/23 00:37:46;;;;;;;6.57;2.60;;;24.50;96.70;;;;;;5039508;28;20091;-70
2021/06/23 00:40:17;;;;;;;14.20;3.45;;;24.30;96.70;;;;;;5041574;28;20049;-70
2021/06/23 00:42:47;;;;;;;11.13;3.38;;;24.20;96.70;;;;;;5040309;28;20073;-70
2021/06/23 00:45:19;;;;;;;9.23;3.03;;;24.20;96.70;;;;;;5036967;28;20044;-70
2021/06/23 00:47:54;;;;;;;6.28;3.00;;;24.30;96.70;;;;;;5045737;28;20037;-70
2021/06/23 00:50:28;;;;;;;9.75;3.60;;;24.20;96.70;;;;;;5026971;28;20052;-70
2021/06/23 00:53:08;;;;;;;9.10;2.95;;;24.20;96.70;;;;;;5046148;28;20040;-70
2021/06/23 00:55:40;;;;;;;9.50;3.60;;;24.30;96.70;;;;;;5042604;28;20057;-70
2021/06/23 00:58:14;;;;;;;10.13;3.47;;;24.30;96.70;;;;;;5040568;28;20044;-70
2021/06/23 01:00:44;;;;;;;9.68;3.67;;;24.30;96.70;;;;;;5041743;28;20061;-70
2021/06/23 01:03:15;;;;;;;6.38;3.20;;;24.10;96.70;;;;;;5040372;28;20041;-70
2021/06/23 01:05:54;;;;;;;8.65;3.40;;;24.00;96.70;;;;;;5047442;28;20041;-70
2021/06/23 01:08:24;;;;;;;7.70;3.50;;;23.90;96.70;;;;;;5039621;28;20057;-70
2021/06/23 01:10:54;;;;;;;8.75;3.15;;;24.00;96.70;;;;;;5047188;28;20037;-70
2021/06/23 01:13:34;;;;;;;11.25;2.85;;;24.00;96.70;;;;;;5043441;28;20140;-70
2021/06/23 01:16:11;;;;;;;9.18;3.00;;;23.90;96.70;;;;;;5043273;28;20478;-70
2021/06/23 01:18:44;;;;;;;5.53;2.90;;;23.80;96.70;;;;;;5037952;28;20554;-70
2021/06/23 01:21:14;;;;;;;9.70;3.10;;;23.80;96.70;;;;;;5043037;28;20093;-70
2021/06/23 01:23:45;;;;;;;9.13;3.28;;;23.70;96.70;;;;;;5026404;28;20076;-70
2021/06/23 01:26:15;;;;;;;11.45;3.38;;;23.70;96.70;;;;;;5040837;28;20040;-70
2021/06/23 01:28:47;;;;;;;9.18;3.42;;;23.70;96.70;;;;;;5044118;28;20091;-70
2021/06/23 01:31:20;;;;;;;7.28;3.05;;;23.60;96.70;;;;;;5042656;28;20127;-70
2021/06/23 01:33:52;;;;;;;6.45;2.85;;;23.60;96.70;;;;;;5038994;28;20167;-70
2021/06/23 01:36:23;;;;;;;7.30;2.88;;;23.60;96.70;;;;;;5037770;28;20135;-70
2021/06/23 01:38:55;;;;;;;12.27;3.08;;;23.60;96.70;;;;;;5037750;28;20045;-70
2021/06/23 01:41:25;;;;;;;6.78;2.58;;;23.80;96.70;;;;;;5044103;28;20126;-70
2021/06/23 01:43:55;;;;;;;8.52;3.33;;;23.80;96.70;;;;;;5038809;28;20037;-70
2021/06/23 01:46:25;;;;;;;7.35;2.88;;;23.70;96.70;;;;;;5038996;28;20132;-70
2021/06/23 01:48:56;;;;;;;10.60;3.13;;;23.70;96.70;;;;;;5042278;28;20032;-69
2021/06/23 01:51:26;;;;;;;9.95;2.97;;;23.80;96.70;;;;;;5041922;28;20481;-70
2021/06/23 01:53:58;;;;;;;9.43;3.50;;;23.80;96.70;;;;;;5040222;28;20044;-70
2021/06/23 01:56:29;;;;;;;13.93;3.78;;;23.80;96.70;;;;;;5037428;28;20040;-70
2021/06/23 01:59:01;;;;;;;8.05;3.35;;;23.80;96.70;;;;;;5037106;28;20149;-70
2021/06/23 02:01:58;;;;;;;9.07;3.45;;;23.80;96.70;;;;;;5042291;28;20383;-70
2021/06/23 02:04:49;;;;;;;8.85;3.20;;;23.90;96.70;;;;;;5041056;28;20063;-69
2021/06/23 02:07:59;;;;;;;10.45;3.35;;;23.90;96.70;;;;;;5035828;28;20033;-70
2021/06/23 02:10:45;;;;;;;;;;;23.70;96.70;;;;;;5035483;28;20134;-70
2021/06/23 02:14:00;;;;;;;6.32;2.78;;;23.50;96.70;;;;;;5038613;28;19925;-69
2021/06/23 02:16:41;;;;;;;7.78;2.50;;;23.50;96.70;;;;;;5039830;28;20459;-69
2021/06/23 02:19:15;;;;;;;9.85;3.72;;;23.40;96.70;;;;;;5038455;28;20040;-70
2021/06/23 02:22:13;;;;;;;7.05;3.92;;;23.30;96.70;;;;;;5013424;28;20057;-70
2021/06/23 02:24:51;;;;;;;8.70;4.15;;;23.20;96.70;;;;;;5040798;28;20037;-70
2021/06/23 02:27:31;;;;;;;7.88;3.53;;;23.20;96.70;;;;;;5037311;28;20043;-70
2021/06/23 02:30:02;;;;;;;12.27;4.05;;;23.20;96.70;;;;;;5044570;28;20068;-70
2021/06/23 02:32:35;;;;;;;9.15;2.97;;;23.20;96.70;;;;;;5040190;28;20506;-69
2021/06/23 02:35:17;;;;;;;7.80;2.63;;;23.00;96.70;;;;;;5040011;28;20055;-70
2021/06/23 02:38:02;;;;;;;6.53;2.72;;;22.90;96.70;;;;;;5039540;28;20049;-70
2021/06/23 02:40:47;;;;;;;7.00;3.00;;;22.90;96.70;;;;;;5036120;28;20073;-71
2021/06/23 02:43:33;;;;;;;7.90;2.78;;;22.90;96.70;;;;;;5043101;28;20040;-71
2021/06/23 02:46:25;;;;;;;9.95;2.80;;;22.80;96.70;;;;;;5040282;28;20040;-71
2021/06/23 02:49:02;;;;;;;6.10;3.08;;;22.90;96.70;;;;;;5039495;28;20049;-71
2021/06/23 02:51:42;;;;;;;7.07;2.83;;;22.80;96.70;;;;;;5038270;28;20141;-71
2021/06/23 02:54:12;;;;;;;7.93;2.85;;;22.80;96.70;;;;;;5037992;28;20072;-70
2021/06/23 02:57:05;;;;;;;8.25;2.63;;;22.80;96.70;;;;;;5038757;28;20430;-70
2021/06/23 02:59:40;;;;;;;7.90;3.17;;;22.70;96.70;;;;;;5039238;28;20137;-70
2021/06/23 03:02:10;;;;;;;7.22;2.78;;;22.90;96.70;;;;;;5044956;28;20119;-70
2021/06/23 03:04:45;;;;;;;9.77;3.50;;;22.90;96.70;;;;;;5044135;28;20051;-71
2021/06/23 03:07:20;;;;;;;6.22;2.53;;;22.80;96.70;;;;;;5044040;28;20036;-71
2021/06/23 03:10:04;;;;;;;8.00;3.08;;;22.70;96.70;;;;;;5041584;28;20095;-71
2021/06/23 03:12:53;;;;;;;7.22;2.88;;;22.70;96.70;;;;;;4997542;28;20478;-71
2021/06/23 03:15:59;;;;;;;5.95;2.40;;;22.70;96.70;;;;;;4924961;29;20110;-71
2021/06/23 03:18:37;;;;;;;6.38;2.85;;;22.80;96.70;;;;;;4907899;29;20052;-71
2021/06/23 03:21:08;;;;;;;6.20;2.30;;;22.80;96.70;;;;;;4922839;29;20056;-71
2021/06/23 03:23:47;;;;;;;8.93;2.70;;;22.80;96.70;;;;;;4922349;29;20584;-71
2021/06/23 03:26:21;;;;;;;7.05;2.78;;;22.90;96.70;;;;;;4908831;29;20434;-71
2021/06/23 03:28:54;;;;;;;8.70;2.75;;;22.90;96.70;;;;;;4923963;29;20075;-71
2021/06/23 03:31:27;;;;;;;7.95;3.00;;;22.90;96.70;;;;;;4923040;29;20060;-71
2021/06/23 03:33:57;;;;;;;5.13;2.70;;;22.80;96.70;;;;;;4921241;29;20047;-71
2021/06/23 03:36:34;;;;;;;8.38;2.72;;;22.80;96.70;;;;;;4922591;29;20071;-71
2021/06/23 03:39:04;;;;;;;4.38;2.35;;;22.80;96.70;;;;;;4923386;29;20054;-71
2021/06/23 03:41:45;;;;;;;8.43;2.63;;;22.80;96.70;;;;;;4909290;29;20054;-71
2021/06/23 03:44:16;;;;;;;10.63;2.97;;;22.80;96.70;;;;;;4922517;29;20040;-70
2021/06/23 03:46:48;;;;;;;8.60;3.42;;;22.70;96.70;;;;;;4924643;29;20139;-71
2021/06/23 03:49:18;;;;;;;7.35;2.83;;;22.80;96.70;;;;;;4937056;28;20468;-71
2021/06/23 03:51:49;;;;;;;8.70;3.85;;;22.80;96.70;;;;;;5040260;28;20037;-70
2021/06/23 03:54:19;;;;;;;8.75;2.88;;;22.70;96.70;;;;;;5042212;28;20581;-71
2021/06/23 03:56:52;;;;;;;9.65;3.63;;;22.50;96.70;;;;;;5045668;28;20052;-71
2021/06/23 03:59:22;;;;;;;6.55;2.65;;;22.60;96.70;;;;;;5046746;28;20047;-70
2021/06/23 04:01:56;;;;;;;8.30;3.05;;;22.60;96.70;;;;;;5040930;28;20573;-71
2021/06/23 04:04:26;;;;;;;8.50;2.83;;;22.60;96.70;;;;;;5040052;28;20049;-72
2021/06/23 04:07:02;;;;;;;6.63;2.23;;;22.70;96.70;;;;;;5037740;28;20048;-70
2021/06/23 04:09:33;;;;;;;8.60;2.85;;;22.70;96.70;;;;;;5042289;28;20049;-71
2021/06/23 04:12:06;;;;;;;10.60;2.92;;;22.80;96.70;;;;;;5039706;28;20037;-71
2021/06/23 04:14:45;;;;;;;10.43;3.40;;;22.80;96.70;;;;;;5045766;28;20364;-71
2021/06/23 04:17:17;;;;;;;8.40;3.22;;;22.80;96.70;;;;;;5026251;28;20041;-71
2021/06/23 04:19:49;;;;;;;11.25;3.47;;;22.70;96.70;;;;;;5045235;28;20405;-71
2021/06/23 04:22:28;;;;;;;9.13;3.17;;;22.60;96.70;;;;;;5025601;28;20473;-71
2021/06/23 04:25:10;;;;;;;7.38;3.67;;;22.80;96.70;;;;;;5039595;28;20514;-71
2021/06/23 04:27:41;;;;;;;9.05;2.65;;;22.80;96.70;;;;;;5038487;28;20050;-71
2021/06/23 04:30:12;;;;;;;9.45;3.17;;;22.90;96.70;;;;;;5044406;28;20044;-71
2021/06/23 04:32:43;;;;;;;9.77;3.55;;;23.00;96.70;;;;;;5043464;28;20072;-70
2021/06/23 04:35:26;;;;;;;7.75;3.35;;;23.10;96.70;;;;;;5039497;28;20044;-70
2021/06/23 04:37:54;;;;;;;9.70;3.72;;;23.20;96.70;;;;;;5039096;28;20493;-71
2021/06/23 04:40:23;;;;;;;7.03;2.90;;;23.00;96.70;;;;;;5039634;28;20052;-71
2021/06/23 04:42:56;;;;;;;10.18;3.42;;;23.00;96.70;;;;;;5041500;28;20044;-71
2021/06/23 04:45:25;;;;;;;10.15;3.42;;;23.00;96.70;;;;;;5040399;28;20102;-71
2021/06/23 04:48:02;;;;;;;10.35;2.92;;;23.20;96.70;;;;;;5036774;28;20045;-71
2021/06/23 04:50:34;;;;;;;10.32;3.20;;;23.20;96.70;;;;;;5035893;28;20091;-71
2021/06/23 04:53:10;;;;;;;7.75;2.92;;;23.20;96.70;;;;;;5045048;28;20136;-71
2021/06/23 04:55:41;;;;;;;8.43;2.97;;;23.10;96.70;;;;;;5038828;28;20053;-71
2021/06/23 04:58:15;;;;;;;7.80;3.30;;;23.10;96.70;;;;;;5041923;28;20132;-71
2021/06/23 05:00:47;;;;;;;7.68;2.92;;;23.20;96.70;;;;;;5038414;28;20057;-71
2021/06/23 05:03:26;;;;;;;8.55;3.25;;;23.30;96.70;;;;;;5040481;28;20072;-71
2021/06/23 05:05:57;;;;;;;6.65;3.13;;;23.30;96.70;;;;;;5037995;28;20128;-71
2021/06/23 05:08:26;;;;;;;8.07;2.97;;;23.20;96.70;;;;;;5044280;28;20041;-71
2021/06/23 05:10:55;;;;;;;10.77;3.72;;;23.20;96.70;;;;;;5054807;28;20045;-71
2021/06/23 05:13:25;;;;;;;9.18;3.75;;;23.20;96.70;;;;;;5036689;28;20064;-71
2021/06/23 05:15:56;;;;;;;12.25;4.15;;;23.20;96.70;;;;;;5039147;28;20045;-72
2021/06/23 05:18:29;;;;;;;11.45;4.38;;;23.10;96.70;;;;;;5037150;28;20069;-71
2021/06/23 05:20:58;;;;;;;13.30;4.65;;;23.10;96.70;;;;;;5045166;28;20456;-71
2021/06/23 05:23:26;;;;;;;10.40;3.85;;;23.00;96.70;;;;;;5041217;28;20495;-71
2021/06/23 05:25:55;;;;;;;9.50;3.65;;;23.10;96.70;;;;;;5038545;28;20264;-71
2021/06/23 05:28:24;;;;;;;7.75;3.53;;;23.20;96.70;;;;;;5036397;28;20094;-71
2021/06/23 05:30:52;;;;;;;9.45;3.78;;;23.20;96.70;;;;;;5038384;28;20044;-71
2021/06/23 05:33:20;;;;;;;6.45;3.45;;;23.20;96.70;;;;;;5039378;28;20127;-71
2021/06/23 05:35:50;;;;;;;11.23;3.47;;;23.20;96.70;;;;;;5045623;28;20048;-71
2021/06/23 05:38:19;;;;;;;6.68;3.60;;;23.30;96.70;;;;;;5034004;28;20074;-71
2021/06/23 05:40:47;;;;;;;10.13;3.83;;;23.40;96.70;;;;;;5023392;28;20044;-71
2021/06/23 05:43:16;;;;;;;9.90;4.03;;;23.60;96.70;;;;;;5023597;28;20422;-71
2021/06/23 05:45:45;;;;;;;11.70;4.00;;;23.60;96.70;;;;;;5044422;28;20124;-71
2021/06/23 05:48:14;;;;;;;9.52;3.95;;;23.60;96.70;;;;;;5036297;28;20063;-71
2021/06/23 05:50:44;;;;;;;12.85;4.93;;;23.60;96.70;;;;;;5039067;28;20045;-71
2021/06/23 05:53:14;;;;;;;12.50;4.35;;;23.60;96.70;;;;;;5038024;28;20049;-71
2021/06/23 05:55:42;;;;;;;10.80;5.13;;;23.70;96.70;;;;;;5045341;28;20049;-71
2021/06/23 05:58:10;;;;;;;11.63;4.72;;;23.60;96.70;;;;;;5041229;28;20060;-72
2021/06/23 06:00:38;;;;;;;11.13;4.10;;;23.60;96.70;;;;;;5038075;28;20057;-74
2021/06/23 06:03:07;;;;;;;9.73;4.47;;;23.70;96.70;;;;;;5040227;28;20067;-73
2021/06/23 06:05:35;;;;;;;11.18;3.95;;;23.80;96.70;;;;;;5042385;28;20029;-72
2021/06/23 06:08:05;;;;;;;9.48;3.65;;;23.90;96.70;;;;;;5040381;28;20951;-74
2021/06/23 06:10:35;;;;;;;9.25;3.47;;;23.90;96.70;;;;;;5038182;28;20049;-72
2021/06/23 06:13:04;;;;;;;8.23;3.20;;;23.90;96.70;;;;;;5036382;28;20050;-72
2021/06/23 06:15:32;;;;;;;10.90;4.07;;;23.90;96.70;;;;;;5041386;28;20099;-71
2021/06/23 06:18:02;;;;;;;10.43;3.60;;;23.90;96.70;;;;;;5041570;28;20378;-71
2021/06/23 06:20:30;;;;;;;11.05;3.55;;;24.00;96.70;;;;;;5036546;28;20437;-72
2021/06/23 06:22:59;;;;;;;10.23;3.75;;;24.00;96.70;;;;;;5038881;28;20037;-72
2021/06/23 06:25:28;;;;;;;11.05;3.60;;;24.00;96.70;;;;;;5051720;28;20837;-72
2021/06/23 06:27:58;;;;;;;12.27;4.07;;;24.00;96.70;;;;;;5032705;28;20126;-72
2021/06/23 06:30:27;;;;;;;9.80;4.13;;;24.00;96.70;;;;;;5021868;28;20048;-72
2021/06/23 06:32:56;;;;;;;9.57;4.40;;;24.10;96.70;;;;;;5038611;28;20037;-72
2021/06/23 06:35:24;;;;;;;13.68;4.10;;;24.20;96.70;;;;;;5040760;28;21046;-72
2021/06/23 06:37:54;;;;;;;9.25;3.50;;;24.30;96.70;;;;;;5044099;28;20616;-72
2021/06/23 06:40:24;;;;;;;8.68;3.65;;;24.40;96.70;;;;;;5043491;28;20044;-72
2021/06/23 06:42:53;;;;;;;7.05;3.13;;;24.40;96.70;;;;;;5040810;28;20044;-72
2021/06/23 06:45:24;;;;;;;8.55;3.65;;;24.40;96.70;;;;;;5044989;28;20082;-72
2021/06/23 06:47:52;;;;;;;9.75;3.40;;;24.40;96.70;;;;;;5027311;28;20044;-72
2021/06/23 06:50:20;;;;;;;10.25;3.33;;;24.50;96.70;;;;;;5045517;28;20080;-71
2021/06/23 06:52:49;;;;;;;12.77;3.92;;;24.60;96.70;;;;;;5045644;28;20580;-71
2021/06/23 06:55:21;;;;;;;11.43;3.28;;;24.50;96.70;;;;;;5041811;28;20044;-72
2021/06/23 06:57:51;;;;;;;13.27;3.47;;;24.50;96.70;;;;;;5040706;28;20860;-72
2021/06/23 07:00:22;;;;;;;10.02;3.47;;;24.50;96.70;;;;;;5045531;28;20056;-72
2021/06/23 07:02:53;;;;;;;10.80;3.70;;;24.50;96.70;;;;;;5042677;28;20045;-72
2021/06/23 07:05:23;;;;;;;13.80;3.75;;;24.50;96.70;;;;;;5042387;28;20064;-72
2021/06/23 07:07:52;;;;;;;10.93;3.67;;;24.50;96.70;;;;;;5041412;28;20045;-72
2021/06/23 07:10:20;;;;;;;12.07;4.15;;;24.60;96.70;;;;;;5039899;28;20102;-71
2021/06/23 07:12:49;;;;;;;8.68;3.03;;;24.60;96.70;;;;;;5062268;28;20524;-72
2021/06/23 07:15:18;;;;;;;11.57;4.07;;;24.60;96.70;;;;;;5046179;28;20455;-72
2021/06/23 07:17:48;;;;;;;10.10;3.63;;;24.60;96.70;;;;;;5044975;28;20544;-72
2021/06/23 07:20:16;;;;;;;10.27;3.42;;;24.60;96.70;;;;;;5042761;28;20049;-72
2021/06/23 07:22:45;;;;;;;11.98;3.55;;;24.70;96.70;;;;;;5038625;28;20037;-72
2021/06/23 07:25:13;;;;;;;13.68;3.60;;;24.90;96.70;;;;;;5045730;28;20048;-72
2021/06/23 07:27:42;;;;;;;14.15;3.60;;;25.00;96.70;;;;;;5043280;28;20414;-72
2021/06/23 07:30:11;;;;;;;9.43;3.35;;;25.20;96.70;;;;;;5039945;28;20043;-72
2021/06/23 07:32:52;;;;;;;9.18;3.42;;;25.20;96.70;;;;;;5024429;28;20056;-71
2021/06/23 07:38:13;;;;;;;9.68;3.85;;;25.30;96.70;;;;;;5044344;28;20363;-71
2021/06/23 07:40:44;;;;;;;9.25;3.65;;;25.40;96.70;;;;;;5042357;28;20049;-71
2021/06/23 07:43:12;;;;;;;11.52;3.25;;;25.50;96.70;;;;;;5040218;28;20044;-72
2021/06/23 07:45:50;;;;;;;10.60;3.80;;;25.60;96.70;;;;;;5033058;28;20049;-72
2021/06/23 07:48:25;;;;;;;11.27;3.85;;;25.40;96.70;;;;;;5039903;28;20095;-72
2021/06/23 07:51:09;;;;;;;7.35;3.15;;;25.40;96.70;;;;;;5043998;28;20056;-72
2021/06/23 08:02:44;;;;;;;11.07;3.58;;;25.70;96.70;;;;;;5043801;28;20049;-72
2021/06/23 08:10:49;;;;;;;10.73;3.38;;;26.00;96.70;;;;;;5037796;28;20371;-72
2021/06/23 08:13:18;;;;;;;10.30;3.67;;;26.00;96.70;;;;;;5039230;28;20051;-72
2021/06/23 08:15:48;;;;;;;11.30;3.47;;;26.20;96.70;;;;;;5040909;28;20136;-72
2021/06/23 08:18:20;;;;;;;9.20;3.60;;;26.20;96.70;;;;;;5040564;28;20820;-72
2021/06/23 08:20:49;;;;;;;13.77;4.50;;;26.30;96.70;;;;;;5045584;28;20040;-72
2021/06/23 08:23:19;;;;;;;10.55;4.03;;;26.30;96.70;;;;;;5043886;28;20036;-72
2021/06/23 08:25:48;;;;;;;13.50;3.78;;;26.30;96.70;;;;;;5041507;28;20047;-72
2021/06/23 08:28:16;;;;;;;13.00;3.70;;;26.40;96.70;;;;;;5039161;28;20045;-72
2021/06/23 08:30:44;;;;;;;9.73;3.53;;;26.50;96.70;;;;;;5045290;28;20082;-72
2021/06/23 08:33:13;;;;;;;8.52;3.45;;;26.60;96.70;;;;;;5039569;28;20123;-72
2021/06/23 08:35:41;;;;;;;10.40;3.13;;;26.70;96.70;;;;;;5043361;28;20067;-72
2021/06/23 08:38:09;;;;;;;10.88;3.33;;;26.80;96.70;;;;;;5035323;28;20037;-72
2021/06/23 08:40:39;;;;;;;9.30;3.00;;;26.90;96.70;;;;;;5041501;28;20540;-72
2021/06/23 08:43:08;;;;;;;10.73;3.42;;;26.90;96.70;;;;;;5022082;28;20064;-71
2021/06/23 08:45:36;;;;;;;6.60;2.47;;;27.10;96.70;;;;;;5039991;28;20053;-72
2021/06/23 08:48:06;;;;;;;10.90;3.42;;;27.20;96.70;;;;;;5049036;28;20043;-72
2021/06/23 08:50:34;;;;;;;10.50;4.07;;;27.20;96.70;;;;;;5042869;28;20048;-72
2021/06/23 08:53:03;;;;;;;10.02;3.50;;;27.30;96.70;;;;;;5042307;28;20407;-72
2021/06/23 08:55:31;;;;;;;6.82;3.50;;;27.30;96.70;;;;;;5042677;28;20530;-72
2021/06/23 08:58:01;;;;;;;11.57;3.47;;;27.40;96.70;;;;;;5042251;28;20130;-72
2021/06/23 09:00:30;;;;;;;10.57;3.80;;;27.50;96.70;;;;;;5037132;28;20182;-72
2021/06/23 09:03:00;;;;;;;10.93;3.63;;;27.50;96.10;;;;;;5043084;28;20048;-72
2021/06/23 09:05:46;;;;;;;9.25;3.22;;;27.60;96.00;;;;;;5039243;28;20037;-71
2021/06/23 09:08:29;;;;;;;12.20;3.78;;;27.70;95.70;;;;;;5040881;28;20124;-72
2021/06/23 09:10:58;;;;;;;11.20;3.80;;;27.70;95.90;;;;;;5042699;28;20037;-71
2021/06/23 09:13:29;;;;;;;9.82;3.50;;;27.60;95.70;;;;;;5038835;28;20039;-72
2021/06/23 09:16:03;;;;;;;9.57;3.85;;;27.60;95.50;;;;;;5024167;28;20120;-72
2021/06/23 09:18:34;;;;;;;11.70;3.70;;;27.60;95.20;;;;;;5038631;28;20136;-71
2021/06/23 09:21:06;;;;;;;11.43;3.40;;;27.70;96.40;;;;;;5043356;28;20091;-72
2021/06/23 09:23:40;;;;;;;9.13;3.10;;;27.80;95.90;;;;;;5038947;28;20036;-72
2021/06/23 09:26:10;;;;;;;11.57;3.25;;;27.80;94.70;;;;;;5037691;28;20296;-72
2021/06/23 09:28:41;;;;;;;7.90;3.75;;;27.80;95.10;;;;;;5042004;28;20040;-72
2021/06/23 09:31:10;;;;;;;10.65;3.85;;;27.80;95.20;;;;;;5043292;28;20028;-72
2021/06/23 09:33:39;;;;;;;9.43;3.05;;;28.00;94.80;;;;;;5034785;28;20045;-72
2021/06/23 09:36:09;;;;;;;8.13;3.45;;;28.10;93.90;;;;;;5040020;28;20615;-72
2021/06/23 09:38:57;;;;;;;13.50;4.00;;;28.20;94.20;;;;;;5041534;28;20455;-71
2021/06/23 09:41:28;;;;;;;12.07;3.25;;;28.40;92.00;;;;;;5042516;28;20602;-72
2021/06/23 09:44:03;;;;;;;9.68;3.10;;;28.50;91.20;;;;;;5041585;28;20391;-72
2021/06/23 09:46:33;;;;;;;10.38;3.58;;;28.50;90.10;;;;;;5034551;28;20502;-72
2021/06/23 09:49:06;;;;;;;8.00;3.30;;;28.40;90.30;;;;;;5036669;28;20049;-71
2021/06/23 09:51:47;;;;;;;11.23;3.17;;;28.40;90.60;;;;;;5042190;28;20048;-71
2021/06/23 09:54:17;;;;;;;9.25;4.28;;;28.50;89.60;;;;;;5042258;28;20102;-71
2021/06/23 09:57:14;;;;;;;9.48;3.17;;;28.60;90.50;;;;;;5038882;28;20123;-71
2021/06/23 09:59:50;;;;;;;9.57;3.22;;;28.70;89.20;;;;;;5039033;28;20056;-71
2021/06/23 10:02:29;;;;;;;10.30;3.10;;;28.70;89.20;;;;;;5037570;28;20414;-71
2021/06/23 10:04:59;;;;;;;8.63;3.05;;;28.80;88.90;;;;;;5042231;28;20049;-72
2021/06/23 10:07:44;;;;;;;8.95;3.05;;;28.90;88.80;;;;;;5056659;28;20053;-72
2021/06/23 10:10:15;;;;;;;10.45;4.13;;;29.00;88.30;;;;;;5043771;28;20053;-72
2021/06/23 10:12:46;;;;;;;6.93;2.63;;;28.90;88.80;;;;;;5042018;28;20764;-72
2021/06/23 10:15:16;;;;;;;7.32;2.75;;;29.10;87.60;;;;;;5043455;28;20045;-72
2021/06/23 10:17:45;;;;;;;8.98;2.65;;;29.10;87.20;;;;;;5028700;28;20514;-72
2021/06/23 10:20:15;;;;;;;10.13;3.20;;;29.30;86.40;;;;;;5046453;28;20601;-73
2021/06/23 10:22:45;;;;;;;8.93;3.35;;;29.50;85.50;;;;;;5046187;28;20127;-73
2021/06/23 10:25:19;;;;;;;5.85;2.25;;;29.50;85.30;;;;;;5047294;28;20048;-72
2021/06/23 10:27:52;;;;;;;9.98;2.90;;;29.60;85.00;;;;;;5044778;28;20479;-72
2021/06/23 10:30:28;;;;;;;9.65;3.05;;;29.90;84.80;;;;;;5043934;28;20377;-72
2021/06/23 10:32:57;;;;;;;9.60;2.97;;;30.10;84.80;;;;;;5043396;28;20342;-72
2021/06/23 10:35:25;;;;;;;9.20;3.33;;;30.30;84.50;;;;;;5040145;28;20387;-72
2021/06/23 10:37:55;;;;;;;9.30;2.60;;;30.40;84.00;;;;;;5047086;28;20532;-72
2021/06/23 10:40:26;;;;;;;7.55;2.30;;;30.50;83.40;;;;;;5045220;28;20094;-72
2021/06/23 10:43:11;;;;;;;15.02;2.92;;;30.40;80.30;;;;;;5046092;28;20068;-73
2021/06/23 10:45:42;;;;;;;4.70;2.00;;;30.40;80.60;;;;;;5063553;28;20442;-73
2021/06/23 10:48:11;;;;;;;7.30;2.15;;;30.40;79.40;;;;;;5047748;28;20075;-73
2021/06/23 10:50:40;;;;;;;9.02;1.73;;;30.50;78.70;;;;;;5043594;28;20046;-73
2021/06/23 10:53:32;;;;;;;6.82;2.03;;;30.60;78.30;;;;;;5047936;28;20037;-72
2021/06/23 10:56:03;;;;;;;6.32;1.70;;;30.70;77.10;;;;;;5041875;28;20076;-73
2021/06/23 10:58:33;;;;;;;6.05;1.92;;;30.70;78.60;;;;;;5061591;28;20493;-73
2021/06/23 11:01:11;;;;;;;7.82;2.10;;;30.70;78.00;;;;;;5043228;28;20066;-73
2021/06/23 11:04:02;;;;;;;14.10;2.95;;;30.70;78.10;;;;;;5042857;28;20080;-73
2021/06/23 11:06:42;;;;;;;16.88;2.85;;;30.80;78.70;;;;;;5036722;28;20056;-75
2021/06/23 11:09:25;;;;;;;7.45;2.70;;;31.00;77.70;;;;;;5041382;28;20044;-73
2021/06/23 11:11:54;;;;;;;12.45;3.25;;;31.10;77.30;;;;;;5043912;28;20499;-75
2021/06/23 11:14:23;;;;;;;13.25;3.50;;;31.20;79.20;;;;;;5042442;28;20037;-73
2021/06/23 11:16:53;;;;;;;7.40;2.33;;;31.20;79.20;;;;;;5041018;28;20409;-74
2021/06/23 11:19:35;;;;;;;7.28;1.95;;;31.30;79.00;;;;;;5043066;28;20034;-74
2021/06/23 11:22:13;;;;;;;6.63;1.90;;;31.40;78.60;;;;;;5058481;28;20041;-73
2021/06/23 11:24:42;;;;;;;9.60;2.70;;;31.60;78.40;;;;;;5046441;28;20384;-74
2021/06/23 11:27:15;;;;;;;5.35;2.10;;;31.60;76.80;;;;;;5043773;28;20033;-73
2021/06/23 11:29:46;;;;;;;48.60;5.40;;;31.70;75.30;;;;;;5039869;28;20051;-72
2021/06/23 11:32:25;;;;;;;11.30;3.03;;;31.80;79.50;;;;;;5040789;28;20036;-73
2021/06/23 11:34:55;;;;;;;7.93;2.25;;;31.90;78.70;;;;;;5044530;28;20037;-73
2021/06/23 11:37:31;;;;;;;8.48;2.55;;;31.90;78.20;;;;;;5042563;28;20047;-73
2021/06/23 11:40:20;;;;;;;9.70;3.28;;;32.10;78.70;;;;;;5041554;28;20156;-73
2021/06/23 11:42:50;;;;;;;6.53;2.20;;;32.30;76.60;;;;;;5039789;28;20506;-72
2021/06/23 11:45:20;;;;;;;6.03;2.13;;;32.50;77.40;;;;;;5033596;28;20065;-73
2021/06/23 11:47:51;;;;;;;4.57;2.05;;;32.40;74.50;;;;;;5041418;28;20060;-73
2021/06/23 11:50:21;;;;;;;8.57;2.33;;;32.60;76.00;;;;;;5042251;28;20608;-73
2021/06/23 11:52:49;;;;;;;6.72;2.22;;;32.80;75.10;;;;;;5036363;28;20053;-73
2021/06/23 11:55:24;;;;;;;4.40;2.25;;;32.70;76.10;;;;;;5039628;28;20037;-73
2021/06/23 11:57:56;;;;;;;5.38;2.03;;;32.70;75.70;;;;;;5041089;28;20702;-73
2021/06/23 12:00:25;;;;;;;5.35;1.95;;;32.80;73.90;;;;;;5044455;28;20056;-73
2021/06/23 12:02:56;;;;;;;5.75;2.05;;;32.90;73.50;;;;;;5039445;28;20041;-73
2021/06/23 12:05:25;;;;;;;6.50;2.30;;;32.80;72.70;;;;;;5039029;28;20041;-73
2021/06/23 12:07:54;;;;;;;5.50;2.40;;;32.80;72.70;;;;;;5039008;28;20037;-73
2021/06/23 12:10:25;;;;;;;4.97;2.20;;;32.80;72.00;;;;;;5046908;28;20059;-73
2021/06/23 12:12:54;;;;;;;5.95;2.28;;;32.70;74.70;;;;;;5042606;28;20049;-73
2021/06/23 12:15:24;;;;;;;8.50;2.33;;;32.70;71.90;;;;;;5042958;28;20040;-73
2021/06/23 12:17:57;;;;;;;5.32;2.08;;;32.80;71.80;;;;;;5052975;28;20630;-74
2021/06/23 12:20:31;;;;;;;7.55;2.20;;;32.80;73.80;;;;;;5042930;28;20047;-73
2021/06/23 12:23:03;;;;;;;5.28;2.13;;;32.90;71.10;;;;;;5045874;28;20068;-73
2021/06/23 12:25:36;;;;;;;3.60;1.77;;;33.00;72.10;;;;;;5042869;28;20115;-73
2021/06/23 12:28:06;;;;;;;4.15;1.90;;;33.00;72.70;;;;;;5039497;28;20065;-74
2021/06/23 12:30:37;;;;;;;7.82;2.53;;;33.10;71.40;;;;;;5042931;28;20143;-73
2021/06/23 12:33:10;;;;;;;4.60;1.83;;;33.20;71.90;;;;;;5043807;28;20049;-73
2021/06/23 12:35:40;;;;;;;2.72;1.50;;;33.10;72.40;;;;;;5042517;28;20045;-73
2021/06/23 12:38:10;;;;;;;5.70;1.90;;;32.90;71.00;;;;;;5039661;28;20112;-73
2021/06/23 12:40:39;;;;;;;5.85;2.20;;;32.90;71.50;;;;;;5040700;28;20048;-73
2021/06/23 12:43:13;;;;;;;5.32;1.90;;;33.00;71.00;;;;;;5039951;28;20041;-73
2021/06/23 12:45:44;;;;;;;6.40;2.00;;;33.10;70.80;;;;;;5049924;28;20045;-73
2021/06/23 12:48:14;;;;;;;8.50;2.10;;;33.10;71.40;;;;;;5046879;28;20126;-73
2021/06/23 12:50:43;;;;;;;7.43;1.95;;;33.20;70.60;;;;;;5043404;28;20044;-73
2021/06/23 12:53:11;;;;;;;4.80;1.77;;;33.20;71.20;;;;;;5042214;28;20160;-73
2021/06/23 12:55:40;;;;;;;6.70;2.28;;;33.40;69.20;;;;;;5028286;28;20040;-73
2021/06/23 12:58:08;;;;;;;6.05;2.20;;;33.60;70.30;;;;;;5042592;28;20045;-73
2021/06/23 13:00:37;;;;;;;7.85;2.67;;;33.60;72.50;;;;;;5039624;28;20182;-73
2021/06/23 13:03:05;;;;;;;5.07;2.28;;;33.50;73.00;;;;;;5040400;28;20047;-73
2021/06/23 13:05:35;;;;;;;11.63;2.90;;;33.70;72.30;;;;;;5044146;28;20037;-73
2021/06/23 13:08:05;;;;;;;8.57;2.72;;;34.00;70.80;;;;;;5041199;28;20041;-73
2021/06/23 13:10:35;;;;;;;8.50;2.20;;;34.30;69.70;;;;;;5039913;28;20127;-73
2021/06/23 13:13:03;;;;;;;6.55;2.35;;;34.50;70.00;;;;;;5037758;28;20037;-73
2021/06/23 13:15:32;;;;;;;6.20;1.85;;;34.70;69.50;;;;;;5026787;28;20500;-73
2021/06/23 13:18:00;;;;;;;6.07;2.40;;;35.10;69.40;;;;;;5028253;28;20059;-73
2021/06/23 13:20:29;;;;;;;6.90;2.33;;;35.20;67.40;;;;;;5041784;28;20087;-73
2021/06/23 13:22:59;;;;;;;7.63;2.60;;;35.10;67.80;;;;;;5039944;28;20552;-73
2021/06/23 13:25:29;;;;;;;6.72;2.35;;;35.30;67.00;;;;;;5025168;28;20111;-73
2021/06/23 13:27:59;;;;;;;5.00;2.20;;;35.50;66.30;;;;;;5025246;28;20232;-73
2021/06/23 13:30:28;;;;;;;4.22;1.60;;;35.60;66.30;;;;;;5020419;28;20044;-73